Time;durP1;ratioP1;P1;durP2;ratioP2;P2;SDS_P1;SDS_P2;PMS_P1;PMS_P2;Temp;Humidity;BMP_temperature;BMP_pressure;BME280_temperature;BME280_humidity;BME280_pressure;Samples;Min_cycle;Max_cycle;Signal;HPM_P1;HPM_P2
2022/10/29 00:04:57;;;;;;;29.85;12.27;;;;;;;12.74;100.00;101924.69;10358183;28;20038;-80
2022/10/29 00:10:05;;;;;;;16.65;9.80;;;;;;;12.77;100.00;101921.31;10339662;28;20041;-79
2022/10/29 00:15:10;;;;;;;27.55;10.00;;;;;;;12.81;100.00;101910.16;10357196;28;20125;-79
2022/10/29 00:25:36;;;;;;;21.85;9.20;;;;;;;12.73;100.00;101907.13;10345067;28;20038;-79
2022/10/29 00:30:36;;;;;;;21.67;9.48;;;;;;;12.61;100.00;101894.19;10356310;28;20045;-79
2022/10/29 00:35:40;;;;;;;19.17;9.70;;;;;;;12.45;100.00;101899.41;10357628;28;20130;-79
2022/10/29 00:40:47;;;;;;;20.95;10.23;;;;;;;12.33;100.00;101887.41;10351615;28;20033;-78
2022/10/29 00:46:03;;;;;;;23.92;9.07;;;;;;;12.28;100.00;101887.97;10366025;28;20129;-79
2022/10/29 00:51:08;;;;;;;33.65;10.88;;;;;;;12.29;100.00;101897.66;10366241;28;20054;-78
2022/10/29 00:56:10;;;;;;;24.48;11.55;;;;;;;12.25;100.00;101887.78;10373855;28;20397;-79
2022/10/29 01:01:15;;;;;;;17.20;10.15;;;;;;;12.15;100.00;101889.91;10395704;28;20132;-79
2022/10/29 01:06:17;;;;;;;34.72;12.38;;;;;;;12.02;100.00;101880.38;10382919;28;20121;-80
2022/10/29 01:12:06;;;;;;;38.33;10.52;;;;;;;11.96;100.00;101893.13;10363161;28;20173;-79
2022/10/29 01:17:24;;;;;;;27.65;12.05;;;;;;;11.97;100.00;101894.03;10368387;28;20049;-80
2022/10/29 01:22:36;;;;;;;25.08;13.90;;;;;;;11.99;100.00;101897.66;10364315;28;20124;-79
2022/10/29 01:28:26;;;;;;;22.58;11.80;;;;;;;11.99;100.00;101884.53;10361864;28;20053;-79
2022/10/29 01:33:50;;;;;;;24.92;13.18;;;;;;;11.92;100.00;101892.88;10347715;28;20041;-78
2022/10/29 01:39:39;;;;;;;27.05;13.30;;;;;;;11.88;100.00;101878.66;10361596;28;20446;-80
2022/10/29 01:45:05;;;;;;;30.60;11.70;;;;;;;11.88;100.00;101871.69;10361726;28;20034;-79
2022/10/29 01:50:13;;;;;;;34.35;14.77;;;;;;;11.85;100.00;101867.97;10349436;28;20034;-79
2022/10/29 01:55:22;;;;;;;26.13;11.52;;;;;;;11.86;100.00;101854.97;10346202;28;20049;-79
2022/10/29 02:00:26;;;;;;;24.02;10.88;;;;;;;11.83;100.00;101853.88;10359904;28;20041;-79
2022/10/29 02:05:38;;;;;;;36.15;14.75;;;;;;;11.84;100.00;101845.19;10360850;28;20042;-79
2022/10/29 02:11:07;;;;;;;24.02;12.88;;;;;;;11.87;100.00;101845.38;10355280;28;20056;-79
2022/10/29 02:16:15;;;;;;;23.55;13.35;;;;;;;11.89;100.00;101846.34;10359567;28;20046;-79
2022/10/29 02:21:17;;;;;;;23.80;13.43;;;;;;;12.05;100.00;101840.31;10337229;28;20448;-79
2022/10/29 02:26:21;;;;;;;28.02;13.57;;;;;;;11.99;100.00;101832.06;10343994;28;20584;-80
2022/10/29 02:31:23;;;;;;;29.05;13.63;;;;;;;12.00;100.00;101828.66;10360960;28;20073;-80
2022/10/29 02:36:29;;;;;;;30.63;14.40;;;;;;;11.93;100.00;101816.88;10360359;28;20038;-80
2022/10/29 02:41:33;;;;;;;;;;;;;;;11.96;100.00;101816.16;10357052;28;20034;-79
2022/10/29 02:46:38;;;;;;;24.58;12.45;;;;;;;11.90;100.00;101819.31;10332774;28;20381;-80
2022/10/29 02:51:40;;;;;;;35.63;17.20;;;;;;;11.88;100.00;101819.25;10376610;28;20042;-80
2022/10/29 02:56:42;;;;;;;33.00;14.27;;;;;;;11.88;100.00;101807.81;10358688;28;20086;-80
2022/10/29 03:01:50;;;;;;;34.50;14.70;;;;;;;11.99;100.00;101790.97;10358932;28;20548;-80
2022/10/29 03:06:53;;;;;;;29.17;15.05;;;;;;;12.09;100.00;101789.81;10360099;28;20285;-79
2022/10/29 03:11:56;;;;;;;49.95;18.80;;;;;;;12.08;100.00;101789.72;10367114;28;20494;-80
2022/10/29 03:17:15;;;;;;;31.60;14.95;;;;;;;12.01;100.00;101789.38;10358042;28;20129;-79
2022/10/29 03:22:26;;;;;;;29.60;14.43;;;;;;;11.96;100.00;101779.41;10360201;28;20498;-80
2022/10/29 03:27:33;;;;;;;27.67;13.50;;;;;;;11.92;100.00;101769.56;10359795;28;20501;-79
2022/10/29 03:32:41;;;;;;;32.15;13.50;;;;;;;11.98;100.00;101780.41;10355436;28;20053;-81
2022/10/29 03:37:43;;;;;;;32.50;15.48;;;;;;;11.91;100.00;101776.53;10341670;28;20494;-80
2022/10/29 03:42:45;;;;;;;36.40;17.13;;;;;;;11.91;100.00;101763.41;10359839;28;20038;-81
2022/10/29 03:47:46;;;;;;;30.77;16.60;;;;;;;11.96;100.00;101763.69;10355669;28;20080;-78
2022/10/29 03:52:52;;;;;;;39.60;18.02;;;;;;;11.97;100.00;101773.34;10358017;28;20107;-79
2022/10/29 03:57:55;;;;;;;43.15;17.25;;;;;;;11.92;100.00;101769.56;10357129;28;20038;-79
2022/10/29 04:03:08;;;;;;;47.33;21.02;;;;;;;12.00;100.00;101758.72;10373558;28;20427;-78
2022/10/29 04:08:10;;;;;;;38.33;18.58;;;;;;;12.11;100.00;101730.47;10355618;28;20038;-78
2022/10/29 04:13:14;;;;;;;37.43;16.67;;;;;;;12.10;100.00;101727.75;10363038;28;20034;-77
2022/10/29 04:18:24;;;;;;;31.52;15.45;;;;;;;11.99;100.00;101735.00;10365851;28;20336;-77
2022/10/29 04:23:27;;;;;;;37.60;14.95;;;;;;;11.98;100.00;101720.97;10365564;28;20367;-79
2022/10/29 04:28:28;;;;;;;36.42;16.98;;;;;;;12.09;100.00;101718.06;10347835;28;20765;-79
2022/10/29 04:33:32;;;;;;;42.20;20.25;;;;;;;12.11;100.00;101721.66;10344108;28;20117;-80
2022/10/29 04:38:40;;;;;;;34.92;16.75;;;;;;;12.02;100.00;101724.72;10330693;28;20120;-80
2022/10/29 04:43:46;;;;;;;44.38;18.45;;;;;;;12.01;100.00;101723.78;10364747;28;20042;-80
2022/10/29 04:48:49;;;;;;;51.35;22.42;;;;;;;11.94;100.00;101724.22;10326548;28;20128;-80
2022/10/29 04:54:02;;;;;;;34.42;19.23;;;;;;;11.84;100.00;101732.41;10346388;28;20046;-80
2022/10/29 04:59:05;;;;;;;37.97;17.42;;;;;;;11.87;100.00;101729.94;10362904;28;20037;-81
2022/10/29 05:04:06;;;;;;;25.42;16.30;;;;;;;11.97;100.00;101726.13;10360805;28;20052;-80
2022/10/29 05:09:12;;;;;;;37.67;16.30;;;;;;;12.01;100.00;101715.91;10339465;28;20057;-82
2022/10/29 05:14:20;;;;;;;27.20;14.15;;;;;;;12.10;100.00;101717.25;10344471;28;20045;-82
2022/10/29 05:19:23;;;;;;;25.58;13.10;;;;;;;12.10;100.00;101694.53;10358615;28;20458;-81
2022/10/29 05:24:29;;;;;;;30.13;16.60;;;;;;;12.08;100.00;101687.38;10358589;28;20116;-81
2022/10/29 05:29:31;;;;;;;28.10;14.65;;;;;;;12.12;100.00;101685.03;10375620;28;20124;-82
2022/10/29 05:34:37;;;;;;;33.00;16.05;;;;;;;12.22;100.00;101670.66;10329324;28;20065;-83
2022/10/29 05:39:42;;;;;;;29.50;14.70;;;;;;;12.28;100.00;101670.13;10362132;28;20049;-85
2022/10/29 05:44:49;;;;;;;27.98;13.32;;;;;;;12.26;100.00;101674.38;10360687;28;20049;-81
2022/10/29 05:49:57;;;;;;;33.65;16.17;;;;;;;12.24;100.00;101676.03;10360940;28;20033;-82
2022/10/29 05:54:59;;;;;;;30.40;14.88;;;;;;;12.29;100.00;101664.94;10362559;28;20048;-82
2022/10/29 06:10:53;;;;;;;31.63;14.70;;;;;;;12.07;100.00;101668.13;10347005;28;20129;-82
2022/10/29 06:16:00;;;;;;;26.50;14.18;;;;;;;12.00;100.00;101674.75;10344860;28;20448;-82
2022/10/29 06:21:04;;;;;;;27.00;13.52;;;;;;;11.95;100.00;101667.44;10358652;28;20096;-82
2022/10/29 06:26:06;;;;;;;30.35;16.45;;;;;;;11.89;100.00;101667.97;10360464;28;20371;-82
2022/10/29 06:31:07;;;;;;;23.83;14.05;;;;;;;11.81;100.00;101677.16;10360469;28;20040;-82
2022/10/29 06:36:12;;;;;;;36.78;14.75;;;;;;;11.89;100.00;101676.78;10357741;28;20030;-82
2022/10/29 06:41:13;;;;;;;34.63;14.27;;;;;;;11.96;100.00;101683.25;10345150;28;20560;-82
2022/10/29 06:46:17;;;;;;;30.83;14.83;;;;;;;12.04;100.00;101689.84;10359354;28;20065;-82
2022/10/29 06:51:22;;;;;;;32.85;15.10;;;;;;;12.14;100.00;101679.84;10362350;28;20491;-82
2022/10/29 06:56:24;;;;;;;30.75;15.20;;;;;;;12.26;100.00;101675.28;10326357;28;20056;-82
2022/10/29 07:01:29;;;;;;;29.00;15.07;;;;;;;12.40;100.00;101689.16;10359531;28;20535;-82
2022/10/29 07:06:35;;;;;;;26.17;15.30;;;;;;;12.55;100.00;101689.03;10360975;28;20490;-82
2022/10/29 07:11:43;;;;;;;31.25;14.40;;;;;;;12.69;100.00;101687.16;10390842;28;20458;-82
2022/10/29 07:16:52;;;;;;;23.92;13.63;;;;;;;12.78;100.00;101699.84;10391111;28;20037;-83
2022/10/29 07:21:59;;;;;;;;;;;;;;;12.89;100.00;101693.41;10374839;28;20041;-82
2022/10/29 07:27:09;;;;;;;28.08;14.90;;;;;;;13.05;100.00;101688.94;10359624;28;20047;-82
2022/10/29 07:32:15;;;;;;;31.42;16.05;;;;;;;13.10;100.00;101671.69;10358227;28;20038;-82
2022/10/29 07:37:22;;;;;;;22.13;10.88;;;;;;;13.11;100.00;101672.59;10357083;28;20042;-82
2022/10/29 07:42:24;;;;;;;25.15;11.27;;;;;;;13.12;100.00;101670.03;10383929;28;20052;-82
2022/10/29 07:47:27;;;;;;;27.65;12.07;;;;;;;13.20;100.00;101670.44;10395495;28;20196;-82
2022/10/29 07:52:32;;;;;;;24.20;11.73;;;;;;;13.31;100.00;101673.56;10392713;28;20041;-82
2022/10/29 07:57:36;;;;;;;28.10;11.57;;;;;;;13.32;100.00;101675.38;10400472;28;20120;-82
2022/10/29 08:02:47;;;;;;;26.35;9.40;;;;;;;13.47;100.00;101672.66;10400939;28;20045;-82
2022/10/29 08:07:48;;;;;;;31.20;13.02;;;;;;;13.60;100.00;101666.25;10380779;28;20037;-82
2022/10/29 08:12:50;;;;;;;25.50;12.65;;;;;;;13.77;100.00;101656.53;10372776;28;20504;-82
2022/10/29 08:17:50;;;;;;;28.20;15.00;;;;;;;14.02;100.00;101657.69;10359010;28;20042;-82
2022/10/29 08:22:51;;;;;;;18.88;11.75;;;;;;;14.32;100.00;101663.44;10357149;28;20109;-82
2022/10/29 08:28:01;;;;;;;20.48;10.57;;;;;;;14.75;100.00;101653.03;10355331;28;20054;-82
2022/10/29 08:33:03;;;;;;;19.50;9.50;;;;;;;14.98;100.00;101654.91;10373952;28;20038;-82
2022/10/29 08:38:03;;;;;;;25.20;9.67;;;;;;;15.21;100.00;101657.59;10355987;28;20121;-82
2022/10/29 08:43:29;;;;;;;20.08;9.55;;;;;;;15.34;100.00;101666.00;10357773;28;20092;-82
2022/10/29 08:48:32;;;;;;;19.80;11.38;;;;;;;15.78;99.73;101664.25;10356626;28;20034;-82
2022/10/29 08:53:41;;;;;;;17.23;9.05;;;;;;;16.14;97.66;101647.16;10357431;28;20443;-82
2022/10/29 08:58:46;;;;;;;17.98;9.32;;;;;;;16.26;96.91;101659.91;10345162;28;20042;-82
2022/10/29 09:03:48;;;;;;;13.88;8.75;;;;;;;16.46;94.95;101650.06;10363301;28;20099;-82
2022/10/29 09:08:58;;;;;;;12.38;7.43;;;;;;;16.92;92.57;101647.25;10345682;28;20038;-82
2022/10/29 09:14:07;;;;;;;10.65;6.93;;;;;;;17.35;87.47;101643.41;10363350;28;20034;-82
2022/10/29 09:19:31;;;;;;;18.35;8.88;;;;;;;17.48;86.41;101647.31;10365708;28;20112;-82
2022/10/29 09:24:33;;;;;;;15.30;6.88;;;;;;;17.67;87.52;101646.16;10361817;28;20045;-82
2022/10/29 09:30:07;;;;;;;13.18;8.30;;;;;;;17.80;90.51;101652.72;10364500;28;20045;-82
2022/10/29 09:35:13;;;;;;;16.90;6.72;;;;;;;18.33;87.28;101644.59;10363753;28;20132;-82
2022/10/29 09:40:37;;;;;;;14.73;5.82;;;;;;;19.74;77.28;101635.69;10346148;28;20042;-82
2022/10/29 09:45:49;;;;;;;17.25;6.50;;;;;;;21.84;67.69;101627.03;10347810;28;20387;-82
2022/10/29 09:51:18;;;;;;;11.60;6.38;;;;;;;25.93;52.91;101620.03;10362882;28;20096;-82
2022/10/29 09:56:18;;;;;;;9.77;5.82;;;;;;;25.54;56.58;101621.94;10360988;28;20044;-82
2022/10/29 10:01:19;;;;;;;12.43;7.03;;;;;;;23.31;58.18;101609.84;10362211;28;20359;-83
2022/10/29 10:06:19;;;;;;;15.53;6.43;;;;;;;22.29;62.28;101603.56;10361142;28;20046;-82
2022/10/29 10:11:20;;;;;;;20.13;6.80;;;;;;;22.73;63.80;101615.59;10362778;28;20133;-82
2022/10/29 10:16:25;;;;;;;22.00;5.53;;;;;;;24.47;56.01;101613.91;10361405;28;20402;-81
2022/10/29 10:21:27;;;;;;;12.25;5.82;;;;;;;26.57;47.18;101608.94;10343539;28;20045;-82
2022/10/29 10:26:38;;;;;;;12.88;5.72;;;;;;;27.10;45.42;101605.84;10342946;28;20041;-82
2022/10/29 10:31:39;;;;;;;;;;;;;;;28.45;43.38;101614.09;10359291;28;20159;-83
2022/10/29 10:36:42;;;;;;;9.87;4.93;;;;;;;28.28;43.40;101599.09;10360420;28;19921;-82
2022/10/29 10:41:42;;;;;;;14.57;5.47;;;;;;;28.49;45.06;101607.75;10360242;28;20463;-82
2022/10/29 10:46:43;;;;;;;12.03;5.50;;;;;;;28.66;42.91;101596.72;10343213;28;20054;-82
2022/10/29 10:51:51;;;;;;;18.83;5.57;;;;;;;29.15;41.13;101595.88;10336007;28;20116;-80
2022/10/29 10:56:56;;;;;;;12.93;5.90;;;;;;;28.39;41.87;101590.88;10340446;28;20061;-80
2022/10/29 11:01:59;;;;;;;15.77;7.18;;;;;;;27.88;45.26;101579.00;10355295;28;20121;-80
2022/10/29 11:07:02;;;;;;;14.48;5.70;;;;;;;28.18;46.71;101581.28;10372948;28;20080;-80
2022/10/29 11:12:34;;;;;;;14.75;6.55;;;;;;;27.96;44.00;101574.41;10397889;28;20107;-79
2022/10/29 11:17:43;;;;;;;12.60;5.27;;;;;;;27.36;45.29;101567.97;10360115;28;20037;-80
2022/10/29 11:23:04;;;;;;;10.65;5.75;;;;;;;27.26;45.08;101558.22;10357889;28;20092;-79
2022/10/29 11:28:28;;;;;;;12.65;6.00;;;;;;;27.43;47.27;101559.81;10354465;28;20438;-80
2022/10/29 11:33:40;;;;;;;13.70;5.18;;;;;;;27.68;44.36;101553.28;10340582;28;20096;-81
2022/10/29 11:38:44;;;;;;;17.25;5.10;;;;;;;28.52;42.72;101549.38;10355474;28;20069;-81
2022/10/29 11:43:46;;;;;;;11.40;5.43;;;;;;;29.12;41.32;101535.75;10330353;28;20118;-80
2022/10/29 11:49:02;;;;;;;10.85;5.47;;;;;;;29.16;41.30;101535.69;10356094;28;20038;-80
2022/10/29 11:54:24;;;;;;;22.13;5.30;;;;;;;29.52;40.36;101540.38;10341590;28;20563;-82
2022/10/29 11:59:39;;;;;;;9.85;5.45;;;;;;;29.57;40.04;101534.91;10351633;28;20058;-80
2022/10/29 12:04:42;;;;;;;10.35;5.53;;;;;;;29.55;40.60;101534.91;10337055;28;20046;-80
2022/10/29 12:10:03;;;;;;;14.82;5.75;;;;;;;29.13;41.52;101518.66;10356989;28;20172;-79
2022/10/29 12:15:16;;;;;;;11.07;5.07;;;;;;;29.46;38.80;101518.94;10356301;28;20116;-81
2022/10/29 12:20:23;;;;;;;19.90;4.65;;;;;;;29.22;39.41;101513.09;10358184;28;20045;-80
2022/10/29 12:25:30;;;;;;;13.32;5.72;;;;;;;29.24;42.40;101510.38;10355996;28;20034;-80
2022/10/29 12:30:33;;;;;;;11.88;5.35;;;;;;;30.19;39.35;101503.84;10357015;28;20030;-82
2022/10/29 12:35:42;;;;;;;20.48;5.53;;;;;;;28.52;43.54;101503.59;10364720;28;20026;-81
2022/10/29 12:40:43;;;;;;;10.95;4.47;;;;;;;28.14;43.66;101499.75;10344559;28;20042;-81
2022/10/29 12:45:50;;;;;;;14.50;5.20;;;;;;;25.78;50.41;101497.66;10345347;28;20049;-79
2022/10/29 12:50:56;;;;;;;15.57;7.78;;;;;;;24.56;54.29;101487.28;10364568;28;20539;-81
2022/10/29 12:55:57;;;;;;;15.55;4.82;;;;;;;24.90;57.50;101482.78;10364250;28;20038;-82
2022/10/29 13:00:58;;;;;;;16.43;6.53;;;;;;;27.74;45.87;101481.50;10361412;28;20405;-80
2022/10/29 13:05:58;;;;;;;13.30;5.53;;;;;;;29.29;43.48;101470.75;10348971;28;20042;-79
2022/10/29 13:10:59;;;;;;;14.67;5.40;;;;;;;30.00;38.67;101458.41;10347158;28;20109;-82
2022/10/29 13:16:05;;;;;;;11.20;5.83;;;;;;;29.09;42.41;101454.97;10345225;28;20034;-81
2022/10/29 13:21:06;;;;;;;13.75;6.47;;;;;;;28.21;45.00;101450.31;10382854;28;20076;-81
2022/10/29 13:26:07;;;;;;;11.10;4.57;;;;;;;29.15;42.72;101449.47;10365583;28;20042;-81
2022/10/29 13:31:07;;;;;;;15.38;6.57;;;;;;;28.83;42.56;101440.22;10378216;28;20038;-82
2022/10/29 13:36:14;;;;;;;14.33;5.27;;;;;;;26.63;47.66;101439.78;10362730;28;20038;-81
2022/10/29 13:41:47;;;;;;;18.40;7.18;;;;;;;26.08;51.30;101431.31;10362780;28;20564;-81
2022/10/29 13:46:56;;;;;;;17.95;5.75;;;;;;;24.91;57.07;101430.16;10361601;28;20042;-81
2022/10/29 13:52:00;;;;;;;11.23;5.25;;;;;;;23.65;62.09;101414.09;10344901;28;20409;-81
2022/10/29 13:57:41;;;;;;;15.45;6.28;;;;;;;22.68;66.34;101412.81;10361903;28;20104;-81
2022/10/29 14:02:42;;;;;;;12.53;4.70;;;;;;;21.92;70.21;101411.31;10315670;28;20376;-80
2022/10/29 14:08:20;;;;;;;14.50;6.67;;;;;;;21.26;74.62;101401.69;10352639;28;20041;-80
2022/10/29 14:13:42;;;;;;;11.32;5.32;;;;;;;20.96;76.06;101405.75;10361934;28;20046;-81
2022/10/29 14:18:46;;;;;;;18.58;7.70;;;;;;;20.63;79.57;101402.63;10343783;28;20056;-81
2022/10/29 14:24:00;;;;;;;21.02;6.93;;;;;;;20.37;83.32;101405.78;10360502;28;20037;-81
2022/10/29 14:29:23;;;;;;;14.52;5.93;;;;;;;20.25;84.82;101416.22;10359299;28;20629;-80
2022/10/29 14:34:26;;;;;;;18.88;8.00;;;;;;;20.19;86.67;101405.50;10360310;28;20449;-84
2022/10/29 14:39:31;;;;;;;17.20;7.70;;;;;;;20.41;87.32;101406.72;10375895;28;20030;-86
2022/10/29 14:44:32;;;;;;;16.60;6.38;;;;;;;20.50;88.27;101408.63;10358544;28;20390;-82
2022/10/29 14:49:34;;;;;;;19.75;6.32;;;;;;;20.43;89.05;101410.28;10340117;28;20031;-83
2022/10/29 14:54:35;;;;;;;;;;;;;;;20.28;87.16;101412.69;10300899;28;20038;-81
2022/10/29 14:59:35;;;;;;;31.50;10.52;;;;;;;20.10;85.91;101409.78;10317717;28;20363;-84
2022/10/29 15:04:56;;;;;;;18.52;5.50;;;;;;;19.88;86.88;101412.91;10319177;28;20117;-80
2022/10/29 15:10:20;;;;;;;12.77;6.25;;;;;;;19.52;88.27;101409.56;10303155;28;20438;-82
2022/10/29 15:15:28;;;;;;;15.52;6.82;;;;;;;19.31;87.86;101402.09;10315736;28;20380;-81
2022/10/29 15:20:43;;;;;;;20.38;6.90;;;;;;;19.03;91.67;101399.75;10318235;28;20034;-81
2022/10/29 15:25:44;;;;;;;18.63;6.90;;;;;;;18.72;95.99;101398.19;10326049;28;20481;-81
2022/10/29 15:30:45;;;;;;;23.77;8.85;;;;;;;18.43;98.32;101390.44;10362033;28;20030;-82
2022/10/29 15:35:52;;;;;;;13.07;7.72;;;;;;;18.12;99.06;101395.00;10380703;28;20065;-81
2022/10/29 15:40:56;;;;;;;18.98;7.63;;;;;;;17.87;100.00;101389.91;10342421;28;20042;-81
2022/10/29 15:45:57;;;;;;;24.63;7.88;;;;;;;17.63;100.00;101390.19;10324244;28;20046;-81
2022/10/29 15:50:57;;;;;;;17.45;6.80;;;;;;;17.41;100.00;101383.41;10359359;28;20041;-81
2022/10/29 15:55:59;;;;;;;18.95;7.63;;;;;;;17.33;100.00;101380.56;10340582;28;20117;-81
2022/10/29 16:00:59;;;;;;;23.98;8.55;;;;;;;17.15;100.00;101375.63;10323794;28;20038;-80
2022/10/29 16:06:06;;;;;;;24.00;8.27;;;;;;;16.94;100.00;101376.75;10358723;28;20525;-80
2022/10/29 16:11:09;;;;;;;21.30;7.63;;;;;;;16.72;100.00;101376.09;10368756;28;20046;-81
2022/10/29 16:16:21;;;;;;;18.35;8.52;;;;;;;16.51;100.00;101368.44;10369343;28;20034;-80
2022/10/29 16:21:23;;;;;;;20.00;8.70;;;;;;;16.44;100.00;101369.09;10369120;28;20105;-80
2022/10/29 16:26:24;;;;;;;16.35;7.63;;;;;;;16.34;100.00;101361.72;10368359;28;20046;-82
2022/10/29 16:31:25;;;;;;;34.85;8.55;;;;;;;16.32;100.00;101363.41;10351966;28;20398;-81
2022/10/29 16:36:26;;;;;;;17.70;9.10;;;;;;;16.15;100.00;101366.41;10367838;28;20034;-81
2022/10/29 16:41:26;;;;;;;27.80;9.27;;;;;;;16.10;100.00;101358.31;10353634;28;20565;-80
2022/10/29 16:46:27;;;;;;;27.58;9.52;;;;;;;16.11;100.00;101361.88;10367065;28;20045;-83
2022/10/29 16:51:27;;;;;;;20.08;8.98;;;;;;;16.10;100.00;101355.69;10370147;28;20127;-80
2022/10/29 16:56:28;;;;;;;21.45;6.90;;;;;;;16.16;100.00;101347.06;10370557;28;20125;-79
2022/10/29 17:01:28;;;;;;;26.17;11.05;;;;;;;16.05;100.00;101344.06;10367575;28;20042;-81
2022/10/29 17:06:29;;;;;;;28.95;9.15;;;;;;;15.91;100.00;101351.56;10369616;28;20045;-79
2022/10/29 17:11:29;;;;;;;16.92;9.50;;;;;;;15.89;100.00;101353.25;10368157;28;20042;-79
2022/10/29 17:16:30;;;;;;;21.85;9.45;;;;;;;15.95;100.00;101340.25;10359605;28;20112;-79
2022/10/29 17:21:32;;;;;;;24.70;9.23;;;;;;;15.88;100.00;101347.91;10351893;28;20113;-80
2022/10/29 17:26:32;;;;;;;21.30;10.82;;;;;;;15.82;100.00;101344.16;10339820;28;20504;-81
2022/10/29 17:31:33;;;;;;;23.15;8.38;;;;;;;15.74;100.00;101337.75;10359641;28;20062;-80
2022/10/29 17:36:35;;;;;;;29.05;9.98;;;;;;;15.79;100.00;101346.72;10359629;28;20545;-83
2022/10/29 17:41:36;;;;;;;20.33;8.55;;;;;;;15.78;100.00;101346.66;10344430;28;20128;-81
2022/10/29 17:46:36;;;;;;;15.38;7.40;;;;;;;15.75;100.00;101338.66;10356993;28;20035;-80
2022/10/29 17:51:37;;;;;;;27.98;11.35;;;;;;;15.61;100.00;101343.44;10346919;28;20038;-82
2022/10/29 17:56:37;;;;;;;22.42;8.50;;;;;;;15.41;100.00;101338.38;10341733;28;20173;-81
2022/10/29 18:01:38;;;;;;;19.75;7.20;;;;;;;15.22;100.00;101356.16;10359175;28;20129;-80
2022/10/29 18:06:38;;;;;;;26.05;9.73;;;;;;;15.07;100.00;101369.69;10357101;28;20038;-81
2022/10/29 18:11:39;;;;;;;39.00;9.40;;;;;;;14.94;100.00;101367.44;10360436;28;20046;-81
2022/10/29 18:16:40;;;;;;;13.93;7.93;;;;;;;14.81;100.00;101376.59;10358511;28;20034;-81
2022/10/29 18:21:40;;;;;;;28.85;11.13;;;;;;;14.72;100.00;101389.41;10355574;28;20581;-80
2022/10/29 18:26:41;;;;;;;20.45;10.40;;;;;;;14.60;100.00;101393.34;10359137;28;20113;-82
2022/10/29 18:31:43;;;;;;;21.48;9.95;;;;;;;14.47;100.00;101404.22;10343195;28;20072;-82
2022/10/29 18:36:46;;;;;;;20.85;10.68;;;;;;;14.42;100.00;101397.88;10341248;28;20030;-81
2022/10/29 18:41:46;;;;;;;24.15;8.77;;;;;;;14.30;100.00;101395.66;10327510;28;20046;-81
2022/10/29 18:46:47;;;;;;;25.05;12.75;;;;;;;14.21;100.00;101390.88;10325691;28;20593;-80
2022/10/29 18:51:48;;;;;;;20.85;9.27;;;;;;;14.17;100.00;101392.50;10358304;28;20133;-81
2022/10/29 18:56:49;;;;;;;26.13;11.13;;;;;;;14.13;100.00;101392.31;10342262;28;20091;-81
2022/10/29 19:01:52;;;;;;;19.92;9.55;;;;;;;14.19;100.00;101392.56;10339983;28;20049;-81
2022/10/29 19:06:53;;;;;;;29.80;12.50;;;;;;;14.25;100.00;101387.53;10357971;28;20390;-81
2022/10/29 19:11:54;;;;;;;24.75;11.63;;;;;;;14.30;100.00;101398.28;10354403;28;20046;-80
2022/10/29 19:16:55;;;;;;;22.73;10.13;;;;;;;14.26;100.00;101394.59;10358593;28;20141;-80
2022/10/29 19:21:55;;;;;;;23.85;10.50;;;;;;;14.27;100.00;101406.94;10356873;28;20111;-81
2022/10/29 19:26:56;;;;;;;17.90;9.40;;;;;;;14.24;100.00;101401.53;10340845;28;20390;-79
2022/10/29 19:31:56;;;;;;;30.80;10.30;;;;;;;14.18;100.00;101401.28;10356882;28;20046;-79
2022/10/29 19:36:57;;;;;;;28.10;10.38;;;;;;;14.05;100.00;101400.78;10324309;28;20048;-80
2022/10/29 19:41:58;;;;;;;24.55;9.60;;;;;;;13.97;100.00;101401.31;10339691;28;20057;-80
2022/10/29 19:46:58;;;;;;;37.45;13.13;;;;;;;13.82;100.00;101398.91;10357475;28;20046;-80
2022/10/29 19:51:59;;;;;;;20.45;10.52;;;;;;;13.65;100.00;101400.00;10329986;28;20172;-80
2022/10/29 19:57:00;;;;;;;27.08;11.32;;;;;;;13.48;100.00;101406.25;10335974;28;20064;-80
2022/10/29 20:02:02;;;;;;;29.92;10.63;;;;;;;13.32;100.00;101402.91;10390754;28;20080;-80
2022/10/29 20:07:02;;;;;;;31.40;11.43;;;;;;;13.35;100.00;101417.88;10397937;28;20493;-80
2022/10/29 20:12:04;;;;;;;27.33;11.68;;;;;;;13.35;100.00;101417.88;10395095;28;20041;-80
2022/10/29 20:17:06;;;;;;;27.52;12.80;;;;;;;13.32;100.00;101417.75;10379399;28;20033;-80
2022/10/29 20:22:08;;;;;;;25.65;10.95;;;;;;;13.32;100.00;101412.50;10375605;28;20041;-80
2022/10/29 20:27:09;;;;;;;;;;;;;;;13.36;100.00;101417.06;10359690;28;20120;-80
2022/10/29 20:32:10;;;;;;;22.10;11.18;;;;;;;13.29;100.00;101421.16;10396117;28;19928;-80
2022/10/29 20:37:12;;;;;;;27.05;11.18;;;;;;;13.22;100.00;101417.34;10374503;28;20038;-81
2022/10/29 20:42:15;;;;;;;54.65;13.25;;;;;;;13.12;100.00;101420.38;10356101;28;20053;-80
2022/10/29 20:47:20;;;;;;;22.42;10.85;;;;;;;12.93;100.00;101427.41;10353789;28;20046;-81
2022/10/29 20:52:23;;;;;;;28.30;10.48;;;;;;;12.84;100.00;101437.47;10384491;28;20410;-79
2022/10/29 20:57:26;;;;;;;24.42;11.93;;;;;;;12.76;100.00;101438.84;10361383;28;20034;-81
2022/10/29 21:02:28;;;;;;;20.67;10.93;;;;;;;12.72;100.00;101440.44;10362754;28;20052;-80
2022/10/29 21:07:28;;;;;;;35.08;13.07;;;;;;;12.69;100.00;101437.66;10362053;28;20482;-80
2022/10/29 21:12:30;;;;;;;22.98;11.88;;;;;;;12.62;100.00;101446.94;10363160;28;20053;-79
2022/10/29 21:17:32;;;;;;;30.23;12.53;;;;;;;12.59;100.00;101449.41;10362695;28;20518;-80
2022/10/29 21:22:32;;;;;;;25.17;12.43;;;;;;;12.57;100.00;101455.44;10362999;28;20061;-80
2022/10/29 21:27:33;;;;;;;30.95;13.38;;;;;;;12.61;100.00;101449.50;10329224;28;20042;-80
2022/10/29 21:32:33;;;;;;;21.67;12.32;;;;;;;12.58;100.00;101455.50;10363036;28;20072;-79
2022/10/29 21:37:34;;;;;;;20.95;11.35;;;;;;;12.58;100.00;101455.50;10364175;28;20052;-79
2022/10/29 21:42:34;;;;;;;20.08;12.68;;;;;;;12.54;100.00;101461.44;10361932;28;20041;-80
2022/10/29 21:47:35;;;;;;;25.40;12.20;;;;;;;12.51;100.00;101461.28;10363070;28;20486;-80
2022/10/29 21:52:35;;;;;;;25.25;11.23;;;;;;;12.42;100.00;101466.06;10362253;28;20044;-79
2022/10/29 21:57:36;;;;;;;33.63;11.65;;;;;;;12.34;100.00;101460.47;10344984;28;20144;-79
2022/10/29 22:02:36;;;;;;;22.10;10.45;;;;;;;12.28;100.00;101471.53;10360427;28;20029;-82
2022/10/29 22:07:37;;;;;;;21.48;12.45;;;;;;;12.21;100.00;101472.03;10362311;28;20486;-80
2022/10/29 22:12:37;;;;;;;29.17;11.88;;;;;;;12.23;100.00;101469.50;10360621;28;20489;-79
2022/10/29 22:17:38;;;;;;;22.73;12.55;;;;;;;12.16;100.00;101463.03;10344506;28;20550;-79
2022/10/29 22:22:38;;;;;;;23.60;13.93;;;;;;;12.16;100.00;101473.53;10361726;28;20113;-80
2022/10/29 22:27:39;;;;;;;22.63;10.98;;;;;;;12.18;100.00;101471.88;10362483;28;20538;-79
2022/10/29 22:32:39;;;;;;;31.27;10.32;;;;;;;12.15;100.00;101466.50;10362746;28;20510;-80
2022/10/29 22:37:40;;;;;;;22.85;12.13;;;;;;;12.19;100.00;101464.13;10361781;28;20042;-80
2022/10/29 22:42:40;;;;;;;35.42;11.50;;;;;;;12.22;100.00;101462.47;10362321;28;20062;-80
2022/10/29 22:47:41;;;;;;;26.80;13.60;;;;;;;12.21;100.00;101468.53;10359655;28;20070;-80
2022/10/29 22:52:41;;;;;;;27.23;12.35;;;;;;;12.15;100.00;101472.66;10358297;28;20042;-80
2022/10/29 22:57:42;;;;;;;26.63;10.50;;;;;;;12.12;100.00;101476.81;10358239;28;20149;-84
2022/10/29 23:02:42;;;;;;;25.23;11.95;;;;;;;12.14;100.00;101478.72;10361455;28;20038;-81
2022/10/29 23:07:43;;;;;;;22.30;11.57;;;;;;;12.10;100.00;101479.38;10357982;28;20579;-85
2022/10/29 23:12:43;;;;;;;18.50;10.82;;;;;;;12.01;100.00;101468.41;10353411;28;20438;-78